createdAt,value
2022-12-20T00:02:14.931Z,82.10
2022-12-20T00:04:44.583Z,82.10
2022-12-20T00:07:14.457Z,82.20
2022-12-20T00:09:44.148Z,82.10
2022-12-20T00:12:13.960Z,82.20
2022-12-20T00:14:43.824Z,82.20
2022-12-20T00:17:15.338Z,82.20
2022-12-20T00:19:48.686Z,82.10
2022-12-20T00:22:18.561Z,82.20
2022-12-20T00:24:48.301Z,82.10
2022-12-20T00:27:17.899Z,81.90
2022-12-20T00:29:47.743Z,82.10
2022-12-20T00:32:19.111Z,82.10
2022-12-20T00:34:48.926Z,82.10
2022-12-20T00:37:18.599Z,82.10
2022-12-20T00:39:48.568Z,82.00
2022-12-20T00:42:18.313Z,82.00
2022-12-20T00:44:48.069Z,81.80
2022-12-20T00:47:19.631Z,82.00
2022-12-20T00:49:49.686Z,82.20
2022-12-20T00:52:19.513Z,82.00
2022-12-20T00:54:48.428Z,81.90
2022-12-20T00:57:18.234Z,82.00
2022-12-20T00:59:48.012Z,82.10
2022-12-20T01:02:19.522Z,82.10
2022-12-20T01:04:51.530Z,82.10
2022-12-20T01:07:23.934Z,82.20
2022-12-20T01:09:53.764Z,81.90
2022-12-20T01:12:23.638Z,82.20
2022-12-20T01:14:53.440Z,82.20
2022-12-20T01:17:24.955Z,82.20
2022-12-20T01:19:55.131Z,82.10
2022-12-20T01:22:24.858Z,82.10
2022-12-20T01:24:54.995Z,82.40
2022-12-20T01:27:24.697Z,82.10
2022-12-20T01:29:54.678Z,82.00
2022-12-20T01:32:26.249Z,82.00
2022-12-20T01:34:57.172Z,82.00
2022-12-20T01:37:27.048Z,82.10
2022-12-20T01:39:57.095Z,82.00
2022-12-20T01:42:27.006Z,82.00
2022-12-20T01:45:02.006Z,81.90
2022-12-20T01:47:36.711Z,81.80
2022-12-20T01:50:08.352Z,82.10
2022-12-20T01:52:42.022Z,82.00
2022-12-20T01:55:14.859Z,81.80
2022-12-20T01:57:49.500Z,81.90
2022-12-20T02:00:19.853Z,82.00
2022-12-20T02:02:52.663Z,81.90
2022-12-20T02:05:25.731Z,81.90
2022-12-20T02:07:57.417Z,81.80
2022-12-20T02:10:36.973Z,81.80
2022-12-20T02:13:14.927Z,82.10
2022-12-20T02:15:55.247Z,82.10
2022-12-20T02:18:32.658Z,82.30
2022-12-20T02:21:29.541Z,82.00
2022-12-20T02:24:33.114Z,81.90
2022-12-20T02:27:28.472Z,82.20
2022-12-20T02:30:08.489Z,82.30
2022-12-20T02:32:41.870Z,82.10
2022-12-20T02:35:13.969Z,82.20
2022-12-20T02:37:52.889Z,82.10
2022-12-20T02:40:24.810Z,82.00
2022-12-20T02:42:58.557Z,82.00
2022-12-20T02:45:34.104Z,81.70
2022-12-20T02:48:06.037Z,81.90
2022-12-20T02:50:37.902Z,81.80
2022-12-20T02:53:07.978Z,81.80
2022-12-20T02:55:43.879Z,81.50
2022-12-20T02:58:19.953Z,81.90
2022-12-20T03:00:52.197Z,82.00
2022-12-20T03:03:26.453Z,81.70
2022-12-20T03:05:56.572Z,81.80
2022-12-20T03:08:25.491Z,81.90
2022-12-20T03:10:56.005Z,81.70
2022-12-20T03:13:25.265Z,81.90
2022-12-20T03:15:54.782Z,81.70
2022-12-20T03:18:27.440Z,81.90
2022-12-20T03:20:55.651Z,81.80
2022-12-20T03:23:23.906Z,82.00
2022-12-20T03:25:52.163Z,81.80
2022-12-20T03:28:20.372Z,81.90
2022-12-20T03:30:48.787Z,82.00
2022-12-20T03:33:18.368Z,81.90
2022-12-20T03:35:46.510Z,82.20
2022-12-20T03:38:14.686Z,82.20
2022-12-20T03:40:42.833Z,82.10
2022-12-20T03:43:11.076Z,82.00
2022-12-20T03:45:39.221Z,82.10
2022-12-20T03:48:07.304Z,82.20
2022-12-20T03:50:37.478Z,81.90
2022-12-20T03:53:05.733Z,81.80
2022-12-20T03:55:34.117Z,81.70
2022-12-20T03:58:02.318Z,81.70
2022-12-20T04:00:30.529Z,81.80
2022-12-20T04:02:58.726Z,81.60
2022-12-20T04:05:27.020Z,81.70
2022-12-20T04:07:56.546Z,81.90
2022-12-20T04:10:24.655Z,81.70
2022-12-20T04:12:52.979Z,81.70
2022-12-20T04:15:21.190Z,81.60
2022-12-20T04:17:49.343Z,81.70
2022-12-20T04:20:21.730Z,81.60
2022-12-20T04:22:51.226Z,81.80
2022-12-20T04:25:22.603Z,81.80
2022-12-20T04:27:50.803Z,81.80
2022-12-20T04:30:19.300Z,81.70
2022-12-20T04:32:47.480Z,81.60
2022-12-20T04:35:15.779Z,81.60
2022-12-20T04:37:44.018Z,81.70
2022-12-20T04:40:13.097Z,81.60
2022-12-20T04:42:42.658Z,81.60
2022-12-20T04:45:11.695Z,81.90
2022-12-20T04:47:39.851Z,81.80
2022-12-20T04:50:09.142Z,81.60
2022-12-20T04:52:54.576Z,81.80
2022-12-20T04:55:23.025Z,81.60
2022-12-20T04:57:52.613Z,81.70
2022-12-20T05:00:21.624Z,81.60
2022-12-20T05:02:50.050Z,81.70
2022-12-20T05:05:18.433Z,81.70
2022-12-20T05:07:46.872Z,81.90
2022-12-20T05:10:15.087Z,81.70
2022-12-20T05:12:43.345Z,81.70
2022-12-20T05:15:13.666Z,81.60
2022-12-20T05:17:41.864Z,81.70
2022-12-20T05:20:11.112Z,81.70
2022-12-20T05:22:56.567Z,81.70
2022-12-20T05:25:42.364Z,81.70
2022-12-20T05:28:10.517Z,81.60
2022-12-20T05:30:40.061Z,81.70
2022-12-20T05:33:08.252Z,81.60
2022-12-20T05:35:36.438Z,81.70
2022-12-20T05:38:04.917Z,81.70
2022-12-20T05:40:33.127Z,81.40
2022-12-20T05:43:01.753Z,81.80
2022-12-20T05:45:30.017Z,82.10
2022-12-20T05:47:59.577Z,81.80
2022-12-20T05:50:27.955Z,82.00
2022-12-20T05:52:56.083Z,82.00
2022-12-20T05:55:24.247Z,82.00
2022-12-20T05:57:56.306Z,81.90
2022-12-20T06:00:27.546Z,82.20
2022-12-20T06:02:55.879Z,82.10
2022-12-20T06:05:25.975Z,82.00
2022-12-20T06:07:54.143Z,82.00
2022-12-20T06:10:22.336Z,81.90
2022-12-20T06:12:50.504Z,82.10
2022-12-20T06:15:18.763Z,81.80
2022-12-20T06:17:46.869Z,82.20
2022-12-20T06:20:17.470Z,82.20
2022-12-20T06:22:49.322Z,82.20
2022-12-20T06:25:18.117Z,82.10
2022-12-20T06:27:46.266Z,82.10
2022-12-20T06:30:15.172Z,81.90
2022-12-20T06:32:43.474Z,82.00
2022-12-20T06:35:12.008Z,82.00
2022-12-20T06:37:40.975Z,82.00
2022-12-20T06:40:13.276Z,82.10
2022-12-20T06:42:41.513Z,82.10
2022-12-20T06:45:10.767Z,82.00
2022-12-20T06:47:39.373Z,82.10
2022-12-20T06:50:09.383Z,82.10
2022-12-20T06:52:37.545Z,82.10
2022-12-20T06:55:06.442Z,82.00
2022-12-20T06:57:35.997Z,81.90
2022-12-20T07:00:05.329Z,81.80
2022-12-20T07:02:33.598Z,82.00
2022-12-20T07:05:01.914Z,81.90
2022-12-20T07:07:29.986Z,81.90
2022-12-20T07:09:58.228Z,81.90
2022-12-20T07:12:27.010Z,82.00
2022-12-20T07:14:56.590Z,81.90
2022-12-20T07:17:24.818Z,81.90
2022-12-20T07:19:54.201Z,81.70
2022-12-20T07:22:22.404Z,82.00
2022-12-20T07:24:50.589Z,81.80
2022-12-20T07:27:18.810Z,81.90
2022-12-20T07:29:46.952Z,82.00
2022-12-20T07:32:16.759Z,82.00
2022-12-20T07:34:44.946Z,82.00
2022-12-20T07:37:13.171Z,82.00
2022-12-20T07:39:42.335Z,82.10
2022-12-20T07:42:12.841Z,82.00
2022-12-20T07:44:41.032Z,82.10
2022-12-20T07:47:09.996Z,82.10
2022-12-20T07:49:39.855Z,82.00
2022-12-20T07:52:11.116Z,81.90
2022-12-20T07:54:45.974Z,81.80
2022-12-20T07:57:19.624Z,81.90
2022-12-20T07:59:51.531Z,81.90
2022-12-20T08:02:23.610Z,81.90
2022-12-20T08:04:55.395Z,81.70
2022-12-20T08:07:24.157Z,81.70
2022-12-20T08:09:52.820Z,81.90
2022-12-20T08:12:22.648Z,81.90
2022-12-20T08:14:52.511Z,81.70
2022-12-20T08:17:20.650Z,81.80
2022-12-20T08:19:48.974Z,81.90
2022-12-20T08:22:18.517Z,81.80
2022-12-20T08:24:46.693Z,81.60
2022-12-20T08:27:15.295Z,81.60
2022-12-20T08:29:43.427Z,81.60
2022-12-20T08:32:13.033Z,81.40
2022-12-20T08:34:41.149Z,81.60
2022-12-20T08:37:14.795Z,81.50
2022-12-20T08:39:44.830Z,81.30
2022-12-20T08:42:13.446Z,81.20
2022-12-20T08:44:41.585Z,81.30
2022-12-20T08:47:10.455Z,81.20
2022-12-20T08:49:44.031Z,81.20
2022-12-20T08:52:15.561Z,81.10
2022-12-20T08:54:45.066Z,81.10
2022-12-20T08:57:13.169Z,81.10
2022-12-20T08:59:41.347Z,80.90
2022-12-20T09:02:09.670Z,80.90
2022-12-20T09:04:37.994Z,81.00
2022-12-20T09:07:06.250Z,81.20
2022-12-20T09:09:47.505Z,81.00
2022-12-20T09:12:15.715Z,80.90
2022-12-20T09:14:43.855Z,80.70
2022-12-20T09:17:12.495Z,80.90
2022-12-20T09:19:40.601Z,80.70
2022-12-20T09:22:08.840Z,80.60
2022-12-20T09:24:39.012Z,80.40
2022-12-20T09:27:08.492Z,80.30
2022-12-20T09:29:36.580Z,80.30
2022-12-20T09:32:05.242Z,80.10
2022-12-20T09:34:33.702Z,79.90
2022-12-20T09:37:01.856Z,79.90
2022-12-20T09:39:29.926Z,79.70
2022-12-20T09:41:59.553Z,79.80
2022-12-20T09:44:31.788Z,79.40
2022-12-20T09:47:10.475Z,79.60
2022-12-20T09:49:44.905Z,79.70
2022-12-20T09:52:31.498Z,79.60
2022-12-20T09:55:09.569Z,79.70
2022-12-20T09:57:49.822Z,79.40
2022-12-20T10:00:21.503Z,79.50
2022-12-20T10:03:06.646Z,79.60
2022-12-20T10:05:47.064Z,79.50
2022-12-20T10:08:24.649Z,79.60
2022-12-20T10:10:59.570Z,79.50
2022-12-20T10:13:39.030Z,79.50
2022-12-20T10:16:23.088Z,79.50
2022-12-20T10:18:59.497Z,79.50
2022-12-20T10:21:37.296Z,79.20
2022-12-20T10:24:11.742Z,79.60
2022-12-20T10:26:39.819Z,79.40
2022-12-20T10:29:07.982Z,79.60
2022-12-20T10:31:37.571Z,79.20
2022-12-20T10:34:05.752Z,79.30
2022-12-20T10:36:36.226Z,79.30
2022-12-20T10:39:06.543Z,79.10
2022-12-20T10:41:52.120Z,79.10
2022-12-20T10:44:26.386Z,79.10
2022-12-20T10:46:58.027Z,79.10
2022-12-20T10:49:31.873Z,78.80
2022-12-20T10:52:02.688Z,78.60
2022-12-20T10:54:36.168Z,78.70
2022-12-20T10:57:20.164Z,78.90
2022-12-20T10:59:54.430Z,78.60
2022-12-20T11:02:36.983Z,78.60
2022-12-20T11:05:23.879Z,78.50
2022-12-20T11:10:46.711Z,78.40
2022-12-20T11:13:23.587Z,78.00
2022-12-20T11:15:55.509Z,77.80
2022-12-20T11:18:38.263Z,77.50
2022-12-20T11:21:21.544Z,77.30
2022-12-20T11:24:03.334Z,77.10
2022-12-20T11:26:45.118Z,77.00
2022-12-20T11:29:28.442Z,76.80
2022-12-20T11:32:06.048Z,76.60
2022-12-20T11:34:46.800Z,76.30
2022-12-20T11:37:21.279Z,76.00
2022-12-20T11:40:06.139Z,76.00
2022-12-20T11:42:43.927Z,75.80
2022-12-20T11:45:21.642Z,75.60
2022-12-20T11:48:43.120Z,75.60
2022-12-20T11:51:26.681Z,75.70
2022-12-20T11:54:01.484Z,75.90
2022-12-20T11:56:40.124Z,75.80
2022-12-20T11:59:20.101Z,75.80
2022-12-20T12:01:54.762Z,75.60
2022-12-20T12:04:26.820Z,75.50
2022-12-20T12:07:02.116Z,75.20
2022-12-20T12:09:34.688Z,75.40
2022-12-20T12:12:08.331Z,75.60
2022-12-20T12:14:47.687Z,75.70
2022-12-20T12:17:25.883Z,75.30
2022-12-20T12:19:57.147Z,75.10
2022-12-20T12:22:33.730Z,74.90
2022-12-20T12:25:05.667Z,74.70
2022-12-20T12:27:35.212Z,74.40
2022-12-20T12:30:03.363Z,74.20
2022-12-20T12:32:36.095Z,74.10
2022-12-20T12:35:24.943Z,74.10
2022-12-20T12:38:10.604Z,73.80
2022-12-20T12:41:06.278Z,73.70
2022-12-20T12:43:50.673Z,73.40
2022-12-20T12:46:24.711Z,73.30
2022-12-20T12:49:00.205Z,72.90
2022-12-20T12:51:33.101Z,72.80
2022-12-20T12:54:18.946Z,72.70
2022-12-20T12:56:48.891Z,72.50
2022-12-20T12:59:51.943Z,72.20
2022-12-20T13:02:34.572Z,71.90
2022-12-20T13:05:23.985Z,71.60
2022-12-20T13:07:54.209Z,71.50
2022-12-20T13:10:58.720Z,71.50
2022-12-20T13:13:28.359Z,71.90
2022-12-20T13:16:48.204Z,71.90
2022-12-20T13:19:17.575Z,71.70
2022-12-20T13:21:48.547Z,71.70
2022-12-20T13:24:50.478Z,71.90
2022-12-20T13:27:31.566Z,71.60
2022-12-20T13:30:28.880Z,71.50
2022-12-20T13:33:04.032Z,71.30
2022-12-20T13:35:45.875Z,71.00
2022-12-20T13:38:44.935Z,70.90
2022-12-20T13:41:20.937Z,70.40
2022-12-20T13:43:50.496Z,70.20
2022-12-20T13:46:28.117Z,69.70
2022-12-20T13:49:00.935Z,69.60
2022-12-20T13:51:29.616Z,69.50
2022-12-20T13:54:00.168Z,69.40
2022-12-20T13:56:38.051Z,69.20
2022-12-20T13:59:09.004Z,69.10
2022-12-20T14:01:38.723Z,69.10
2022-12-20T14:04:08.345Z,69.10
2022-12-20T14:06:36.855Z,68.90
2022-12-20T14:09:05.867Z,68.60
2022-12-20T14:11:34.062Z,68.40
2022-12-20T14:14:03.578Z,68.30
2022-12-20T14:16:33.733Z,68.30
2022-12-20T14:19:05.565Z,68.30
2022-12-20T14:21:37.017Z,68.00
2022-12-20T14:24:05.937Z,67.70
2022-12-20T14:26:39.891Z,67.60
2022-12-20T14:29:13.801Z,67.50
2022-12-20T14:31:44.308Z,67.50
2022-12-20T14:34:19.730Z,67.40
2022-12-20T14:36:49.757Z,67.40
2022-12-20T14:39:26.238Z,67.70
2022-12-20T14:41:58.145Z,68.00
2022-12-20T14:44:28.420Z,68.40
2022-12-20T14:46:58.313Z,68.40
2022-12-20T14:49:30.482Z,68.70
2022-12-20T14:52:14.443Z,69.00
2022-12-20T14:57:46.427Z,69.60
2022-12-20T15:00:22.457Z,69.60
2022-12-20T15:03:00.416Z,69.60
2022-12-20T15:05:55.321Z,69.70
2022-12-20T15:08:27.413Z,69.90
2022-12-20T15:11:03.970Z,70.00
2022-12-20T15:13:34.297Z,70.00
2022-12-20T15:16:04.609Z,70.20
2022-12-20T15:18:33.285Z,70.30
2022-12-20T15:21:07.119Z,70.60
2022-12-20T15:23:35.743Z,70.80
2022-12-20T15:26:03.981Z,71.00
2022-12-20T15:28:34.267Z,71.20
2022-12-20T15:31:04.782Z,71.40
2022-12-20T15:33:35.542Z,71.50
2022-12-20T15:36:05.181Z,71.90
2022-12-20T15:41:24.427Z,71.90
2022-12-20T15:43:56.136Z,72.00
2022-12-20T15:46:24.585Z,72.10
2022-12-20T15:48:52.867Z,71.80
2022-12-20T15:51:27.945Z,71.90
2022-12-20T15:53:56.200Z,72.00
2022-12-20T15:56:25.586Z,72.10
2022-12-20T15:58:53.861Z,72.30
2022-12-20T16:01:26.996Z,72.40
2022-12-20T16:03:55.325Z,72.60
2022-12-20T16:06:24.922Z,72.60
2022-12-20T16:08:53.094Z,72.80
2022-12-20T16:11:23.305Z,72.80
2022-12-20T16:13:52.099Z,72.90
2022-12-20T16:16:22.419Z,72.90
2022-12-20T16:18:51.755Z,73.20
2022-12-20T16:21:21.985Z,73.40
2022-12-20T16:23:51.901Z,73.60
2022-12-20T16:26:24.128Z,73.40
2022-12-20T16:28:53.769Z,73.60
2022-12-20T16:31:25.784Z,73.80
2022-12-20T16:33:54.814Z,73.80
2022-12-20T16:36:23.803Z,74.10
2022-12-20T16:38:54.078Z,74.20
2022-12-20T16:41:23.943Z,74.10
2022-12-20T16:43:52.499Z,74.20
2022-12-20T16:46:22.201Z,74.40
2022-12-20T16:48:50.856Z,74.30
2022-12-20T16:51:25.806Z,74.40
2022-12-20T16:56:45.913Z,74.60
2022-12-20T16:59:19.808Z,74.40
2022-12-20T17:01:50.224Z,74.60
2022-12-20T17:04:20.726Z,74.50
2022-12-20T17:06:49.414Z,74.50
2022-12-20T17:12:06.971Z,74.60
2022-12-20T17:14:35.397Z,74.60
2022-12-20T17:17:03.544Z,74.50
2022-12-20T17:19:31.730Z,74.60
2022-12-20T17:24:47.537Z,74.60
2022-12-20T17:27:15.773Z,74.60
2022-12-20T17:29:43.969Z,74.60
2022-12-20T17:32:21.175Z,74.60
2022-12-20T17:34:49.453Z,74.60
2022-12-20T17:37:18.333Z,74.60
2022-12-20T17:39:47.946Z,74.30
2022-12-20T17:42:16.750Z,74.20
2022-12-20T17:44:46.287Z,74.00
2022-12-20T17:47:14.687Z,73.90
2022-12-20T17:49:42.849Z,74.00
2022-12-20T17:52:15.132Z,74.10
2022-12-20T17:54:43.388Z,74.30
2022-12-20T17:57:16.334Z,74.30
2022-12-20T17:59:44.910Z,74.40
2022-12-20T18:02:21.810Z,74.60
2022-12-20T18:04:50.805Z,74.60
2022-12-20T18:07:19.209Z,74.40
2022-12-20T18:09:48.985Z,74.50
2022-12-20T18:12:19.181Z,74.60
2022-12-20T18:14:50.000Z,74.60
2022-12-20T18:17:18.167Z,74.90
2022-12-20T18:19:46.668Z,75.10
2022-12-20T18:22:15.578Z,75.10
2022-12-20T18:24:43.768Z,75.00
2022-12-20T18:27:11.920Z,75.10
2022-12-20T18:29:41.467Z,75.40
2022-12-20T18:32:09.709Z,75.60
2022-12-20T18:34:37.952Z,75.40
2022-12-20T18:37:06.561Z,75.80
2022-12-20T18:39:35.552Z,75.90
2022-12-20T18:42:03.756Z,75.60
2022-12-20T18:44:35.773Z,75.60
2022-12-20T18:47:06.112Z,75.40
2022-12-20T18:49:34.496Z,75.40
2022-12-20T18:52:02.625Z,75.30
2022-12-20T18:54:31.425Z,75.20
2022-12-20T18:56:59.571Z,75.30
2022-12-20T18:59:27.757Z,75.40
2022-12-20T19:01:56.673Z,75.40
2022-12-20T19:04:26.922Z,75.40
2022-12-20T19:06:55.566Z,75.70
2022-12-20T19:09:24.221Z,75.80
2022-12-20T19:11:57.132Z,75.80
2022-12-20T19:14:26.819Z,75.80
2022-12-20T19:16:55.371Z,75.80
2022-12-20T19:19:25.003Z,75.80
2022-12-20T19:21:53.202Z,75.80
2022-12-20T19:24:21.485Z,75.90
2022-12-20T19:26:49.615Z,75.80
2022-12-20T19:29:17.838Z,76.30
2022-12-20T19:31:46.172Z,76.20
2022-12-20T19:34:15.154Z,76.50
2022-12-20T19:36:46.766Z,76.30
2022-12-20T19:39:16.866Z,76.40
2022-12-20T19:41:59.823Z,76.80
2022-12-20T19:44:33.866Z,76.70
2022-12-20T19:47:04.919Z,76.50
2022-12-20T19:49:33.159Z,76.60
2022-12-20T19:52:02.734Z,76.40
2022-12-20T19:54:30.821Z,76.40
2022-12-20T19:56:59.066Z,76.40
2022-12-20T19:59:27.217Z,76.20
2022-12-20T20:01:55.508Z,76.30
2022-12-20T20:04:23.844Z,76.30
2022-12-20T20:06:51.968Z,76.10
2022-12-20T20:09:21.484Z,76.40
2022-12-20T20:11:49.628Z,76.40
2022-12-20T20:14:17.801Z,76.30
2022-12-20T20:16:46.137Z,76.40
2022-12-20T20:19:14.374Z,76.40
2022-12-20T20:21:42.502Z,76.40
2022-12-20T20:24:10.783Z,76.20
2022-12-20T20:26:40.764Z,76.40
2022-12-20T20:29:10.537Z,76.40
2022-12-20T20:31:39.064Z,76.30
2022-12-20T20:34:08.423Z,76.40
2022-12-20T20:36:36.620Z,76.40
2022-12-20T20:39:04.884Z,76.40
2022-12-20T20:41:33.065Z,76.10
2022-12-20T20:44:02.857Z,76.40
2022-12-20T20:46:31.099Z,76.20
2022-12-20T20:48:59.456Z,76.40
2022-12-20T20:51:28.039Z,76.40
2022-12-20T20:53:57.682Z,76.30
2022-12-20T20:56:27.319Z,76.30
2022-12-20T20:59:02.909Z,76.20
2022-12-20T21:01:37.376Z,76.30
2022-12-20T21:04:07.701Z,76.20
2022-12-20T21:06:42.016Z,76.30
2022-12-20T21:09:11.931Z,76.30
2022-12-20T21:11:41.942Z,76.20
2022-12-20T21:14:11.811Z,76.20
2022-12-20T21:16:44.381Z,76.00
2022-12-20T21:19:14.088Z,76.10
2022-12-20T21:21:43.878Z,76.00
2022-12-20T21:24:13.752Z,76.00
2022-12-20T21:26:43.212Z,75.70
2022-12-20T21:29:13.074Z,75.60
2022-12-20T21:31:44.552Z,75.60
2022-12-20T21:34:14.368Z,75.40
2022-12-20T21:36:43.905Z,75.20
2022-12-20T21:39:15.600Z,75.10
2022-12-20T21:41:45.441Z,75.00
2022-12-20T21:44:15.096Z,75.20
2022-12-20T21:46:46.502Z,75.10
2022-12-20T21:49:16.114Z,74.70
2022-12-20T21:51:45.746Z,74.60
2022-12-20T21:54:15.460Z,74.50
2022-12-20T21:56:44.041Z,74.50
2022-12-20T21:59:13.906Z,74.20
2022-12-20T22:01:44.648Z,74.10
2022-12-20T22:04:16.218Z,74.10
2022-12-20T22:06:45.871Z,74.00
2022-12-20T22:09:17.356Z,74.00
2022-12-20T22:11:49.263Z,73.80
2022-12-20T22:14:18.918Z,73.80
2022-12-20T22:16:48.370Z,73.50
2022-12-20T22:19:19.709Z,73.40
2022-12-20T22:21:53.867Z,73.20
2022-12-20T22:24:27.351Z,72.40
2022-12-20T22:26:57.076Z,72.50
2022-12-20T22:29:25.752Z,72.60
2022-12-20T22:31:55.755Z,71.70
2022-12-20T22:34:27.042Z,71.40
2022-12-20T22:36:56.894Z,70.60
2022-12-20T22:39:26.182Z,70.30
2022-12-20T22:41:55.719Z,70.00
2022-12-20T22:44:25.226Z,69.80
2022-12-20T22:46:54.864Z,69.90
2022-12-20T22:49:23.987Z,69.90
2022-12-20T22:52:06.827Z,69.60
2022-12-20T22:54:37.787Z,69.30
2022-12-20T22:57:07.332Z,69.40
2022-12-20T22:59:37.229Z,69.50
2022-12-20T23:02:07.351Z,69.60
2022-12-20T23:04:37.279Z,69.70
2022-12-20T23:07:10.429Z,69.90
2022-12-20T23:09:40.145Z,69.90
2022-12-20T23:12:26.662Z,70.10
2022-12-20T23:15:22.019Z,70.40
2022-12-20T23:17:50.981Z,69.80
2022-12-20T23:20:37.667Z,69.70
2022-12-20T23:23:09.729Z,69.60
2022-12-20T23:25:38.569Z,69.30
2022-12-20T23:28:06.666Z,69.50
2022-12-20T23:30:35.677Z,69.40
2022-12-20T23:33:04.606Z,69.50
2022-12-20T23:35:34.343Z,69.60
2022-12-20T23:38:03.392Z,69.70
2022-12-20T23:40:33.714Z,69.70
2022-12-20T23:43:03.247Z,69.80
2022-12-20T23:45:33.090Z,70.00
2022-12-20T23:48:02.352Z,70.00
2022-12-20T23:50:31.892Z,70.10
2022-12-20T23:53:01.166Z,70.30
2022-12-20T23:55:30.465Z,70.40
2022-12-20T23:58:01.149Z,70.70
